Time;durP1;ratioP1;P1;durP2;ratioP2;P2;SDS_P1;SDS_P2;PMS_P1;PMS_P2;Temp;Humidity;BMP_temperature;BMP_pressure;BME280_temperature;BME280_humidity;BME280_pressure;Samples;Min_cycle;Max_cycle;Signal;HPM_P1;HPM_P2
2022/01/27 00:05:02;;;;;;;5.00;4.27;;;17.30;64.50;;;;;;10494018;28;20197;-68
2022/01/27 00:10:41;;;;;;;4.37;3.70;;;17.30;64.50;;;;;;10489387;28;20699;-67
2022/01/27 00:16:16;;;;;;;5.13;4.23;;;17.30;64.60;;;;;;10496045;28;20335;-67
2022/01/27 00:21:39;;;;;;;6.03;4.07;;;17.30;64.60;;;;;;10483460;28;20296;-66
2022/01/27 00:27:01;;;;;;;4.30;3.77;;;17.30;64.50;;;;;;10493442;28;20222;-66
2022/01/27 00:32:23;;;;;;;4.53;3.80;;;17.30;64.40;;;;;;10493812;28;20617;-68
2022/01/27 00:37:47;;;;;;;4.80;3.73;;;17.30;64.50;;;;;;10464039;28;20193;-67
2022/01/27 00:43:09;;;;;;;4.80;3.83;;;17.30;64.50;;;;;;10493253;28;20212;-67
2022/01/27 00:48:31;;;;;;;4.67;4.17;;;17.30;64.50;;;;;;10494590;28;20219;-67
2022/01/27 00:54:03;;;;;;;4.20;3.70;;;17.30;64.40;;;;;;10493694;28;20714;-66
2022/01/27 00:59:34;;;;;;;5.07;3.90;;;17.30;64.50;;;;;;10488775;28;20197;-67
2022/01/27 01:05:09;;;;;;;4.90;4.30;;;17.30;64.50;;;;;;10491222;28;20197;-69
2022/01/27 01:11:09;;;;;;;5.63;4.53;;;17.30;64.50;;;;;;10492870;28;20732;-68
2022/01/27 01:16:37;;;;;;;4.87;3.83;;;17.20;64.40;;;;;;10493534;28;20181;-68
2022/01/27 01:29:22;;;;;;;4.63;3.90;;;17.20;64.40;;;;;;10492512;28;20576;-68
2022/01/27 01:33:32;;;;;;;5.37;4.00;;;17.30;64.50;;;;;;10491848;28;20215;-68
2022/01/27 01:38:54;;;;;;;4.10;3.53;;;17.30;64.50;;;;;;10492128;28;20188;-67
2022/01/27 01:44:17;;;;;;;4.40;3.57;;;17.30;64.40;;;;;;10492124;28;20200;-68
2022/01/27 01:49:39;;;;;;;5.57;3.90;;;17.30;64.40;;;;;;10485531;28;20273;-68
2022/01/27 01:55:02;;;;;;;5.43;3.70;;;17.20;64.40;;;;;;10491436;28;20757;-68
2022/01/27 02:05:36;;;;;;;4.17;3.40;;;17.20;64.40;;;;;;10488412;28;20281;-64
2022/01/27 02:22:24;;;;;;;5.30;4.23;;;17.20;64.40;;;;;;10457448;28;20693;-64
2022/01/27 02:27:47;;;;;;;4.67;3.40;;;17.30;64.40;;;;;;10478135;28;20216;-64
2022/01/27 02:33:09;;;;;;;5.63;3.60;;;17.20;64.30;;;;;;10473573;28;20197;-64
2022/01/27 02:38:32;;;;;;;4.27;3.60;;;17.20;64.30;;;;;;10488948;28;20213;-64
2022/01/27 02:43:56;;;;;;;3.83;3.20;;;17.20;64.40;;;;;;10488822;28;20192;-64
2022/01/27 02:49:18;;;;;;;5.20;3.97;;;17.20;64.30;;;;;;10487954;28;20221;-64
2022/01/27 02:54:42;;;;;;;4.50;3.60;;;17.20;64.30;;;;;;10478353;28;20193;-64
2022/01/27 03:00:06;;;;;;;4.90;3.90;;;17.20;64.40;;;;;;10459645;28;20205;-64
2022/01/27 03:05:28;;;;;;;3.60;3.23;;;17.20;64.40;;;;;;10462868;28;20597;-66
2022/01/27 03:10:59;;;;;;;4.87;3.50;;;17.20;64.40;;;;;;10453896;28;20213;-64
2022/01/27 03:16:21;;;;;;;3.73;3.27;;;17.20;64.30;;;;;;10485370;28;20330;-63
2022/01/27 03:21:43;;;;;;;5.50;4.13;;;17.20;64.30;;;;;;10454426;28;20220;-64
2022/01/27 03:27:14;;;;;;;4.37;3.60;;;17.20;64.30;;;;;;10466029;28;20212;-64
2022/01/27 03:32:36;;;;;;;4.40;3.30;;;17.20;64.30;;;;;;10494694;28;20212;-64
2022/01/27 03:37:58;;;;;;;4.90;3.87;;;17.20;64.40;;;;;;10493056;28;20829;-64
2022/01/27 03:43:22;;;;;;;3.77;3.13;;;17.20;64.30;;;;;;10494661;28;20196;-63
2022/01/27 03:48:44;;;;;;;3.77;3.37;;;17.20;64.30;;;;;;10493998;28;20223;-64
2022/01/27 03:54:07;;;;;;;4.53;3.37;;;17.20;64.30;;;;;;10494432;28;20204;-63
2022/01/27 03:59:31;;;;;;;4.67;3.87;;;17.20;64.30;;;;;;10494347;28;20212;-63
2022/01/27 04:04:53;;;;;;;4.37;3.50;;;17.20;64.30;;;;;;10465737;28;20212;-64
2022/01/27 04:10:15;;;;;;;6.27;3.70;;;17.20;64.20;;;;;;10480228;28;20227;-64
2022/01/27 04:15:42;;;;;;;4.97;3.00;;;17.20;64.20;;;;;;10493197;28;20212;-64
2022/01/27 04:21:04;;;;;;;5.80;3.50;;;17.20;64.30;;;;;;10452315;28;20718;-65
2022/01/27 04:26:33;;;;;;;4.20;3.13;;;17.20;64.30;;;;;;10467104;28;20223;-65
2022/01/27 04:31:59;;;;;;;4.17;3.67;;;17.20;64.90;;;;;;10450025;28;20213;-64
2022/01/27 04:37:24;;;;;;;4.23;3.60;;;17.20;64.30;;;;;;10453113;28;20184;-63
2022/01/27 04:42:55;;;;;;;3.87;3.23;;;17.20;64.10;;;;;;10450365;28;20264;-64
2022/01/27 04:48:21;;;;;;;4.73;3.70;;;17.20;64.10;;;;;;10450458;28;20220;-63
2022/01/27 04:53:48;;;;;;;5.20;3.67;;;17.20;64.10;;;;;;10465655;28;20185;-63
2022/01/27 04:59:16;;;;;;;4.37;3.77;;;17.30;64.20;;;;;;10490015;28;20812;-64
2022/01/27 05:04:43;;;;;;;4.37;3.53;;;17.30;64.10;;;;;;10469313;28;20279;-63
2022/01/27 05:10:11;;;;;;;4.03;3.27;;;17.20;64.20;;;;;;10490956;28;20212;-64
2022/01/27 05:15:34;;;;;;;4.27;3.70;;;17.30;64.20;;;;;;10491014;28;20198;-64
2022/01/27 05:20:58;;;;;;;3.87;3.50;;;17.30;64.20;;;;;;10490494;28;20223;-65
2022/01/27 05:26:20;;;;;;;4.53;3.50;;;17.30;64.10;;;;;;10473217;28;20224;-64
2022/01/27 05:31:43;;;;;;;3.30;2.67;;;17.30;64.20;;;;;;10449080;28;20217;-63
2022/01/27 05:37:07;;;;;;;4.13;3.10;;;17.30;64.20;;;;;;10456544;28;20595;-64
2022/01/27 05:42:29;;;;;;;3.97;3.00;;;17.30;64.20;;;;;;10468070;28;20590;-64
2022/01/27 05:47:51;;;;;;;3.60;3.07;;;17.30;64.20;;;;;;10470007;28;20612;-68
2022/01/27 05:53:15;;;;;;;4.83;3.30;;;17.30;64.20;;;;;;10490441;28;20199;-65
2022/01/27 05:58:37;;;;;;;4.17;3.30;;;17.30;64.20;;;;;;10490148;28;20223;-66
2022/01/27 06:03:59;;;;;;;3.53;3.05;;;17.30;64.20;;;;;;10470818;28;20408;-65
2022/01/27 06:09:23;;;;;;;4.07;3.33;;;17.30;64.20;;;;;;10489650;28;20251;-63
2022/01/27 06:14:45;;;;;;;4.20;3.23;;;17.30;64.20;;;;;;10489574;28;20201;-64
2022/01/27 06:20:08;;;;;;;4.37;3.20;;;17.30;64.00;;;;;;10489649;28;20215;-64
2022/01/27 06:25:32;;;;;;;5.10;3.43;;;17.20;64.10;;;;;;10490823;28;20197;-65
2022/01/27 06:30:54;;;;;;;4.67;3.73;;;17.30;63.80;;;;;;10457093;28;20712;-64
2022/01/27 06:36:16;;;;;;;6.47;4.27;;;17.20;63.70;;;;;;10456372;28;20666;-64
2022/01/27 06:41:41;;;;;;;6.33;4.10;;;17.30;63.90;;;;;;10456377;28;20224;-63
2022/01/27 06:47:04;;;;;;;5.63;3.83;;;17.30;63.90;;;;;;10487462;28;20684;-63
2022/01/27 06:52:27;;;;;;;4.47;3.40;;;17.20;63.90;;;;;;10455815;28;20217;-65
2022/01/27 06:57:51;;;;;;;5.93;3.90;;;17.20;64.00;;;;;;10453634;28;20207;-63
2022/01/27 07:03:14;;;;;;;4.20;3.63;;;17.30;64.20;;;;;;10482371;28;20216;-65
2022/01/27 07:08:36;;;;;;;5.30;3.77;;;17.30;64.20;;;;;;10492720;28;20231;-65
2022/01/27 07:13:59;;;;;;;6.50;4.83;;;17.30;63.80;;;;;;10489970;28;20208;-65
2022/01/27 07:19:21;;;;;;;5.70;4.10;;;17.30;62.90;;;;;;10465650;28;20698;-64
2022/01/27 07:24:44;;;;;;;5.93;4.00;;;17.30;62.80;;;;;;10475752;28;20200;-64
2022/01/27 07:30:09;;;;;;;5.70;3.70;;;17.30;63.10;;;;;;10491936;28;20617;-65
2022/01/27 07:35:31;;;;;;;6.40;3.60;;;17.30;63.40;;;;;;10491889;28;20199;-66
2022/01/27 07:40:54;;;;;;;5.30;3.47;;;17.30;63.40;;;;;;10490724;28;20208;-66
2022/01/27 07:46:17;;;;;;;3.73;3.13;;;17.30;63.50;;;;;;10455808;28;20192;-65
2022/01/27 07:51:40;;;;;;;4.13;3.20;;;17.30;63.70;;;;;;10494046;28;20212;-64
2022/01/27 07:57:02;;;;;;;4.30;3.23;;;17.30;63.80;;;;;;10460134;28;20680;-65
2022/01/27 08:02:25;;;;;;;4.23;2.97;;;17.20;63.80;;;;;;10491755;28;20444;-65
2022/01/27 08:07:48;;;;;;;3.97;2.53;;;17.30;63.90;;;;;;10448642;28;20221;-64
2022/01/27 08:13:11;;;;;;;3.93;2.80;;;17.30;64.00;;;;;;10453220;28;20201;-65
2022/01/27 08:18:34;;;;;;;3.97;2.60;;;17.30;64.00;;;;;;10453552;28;20212;-65
2022/01/27 08:23:57;;;;;;;2.90;2.20;;;17.30;64.10;;;;;;10480803;28;20201;-64
2022/01/27 08:29:23;;;;;;;3.43;2.73;;;17.30;64.10;;;;;;10467066;28;20213;-65
2022/01/27 08:34:46;;;;;;;2.97;2.27;;;17.30;64.20;;;;;;10432815;22;20241;-70
2022/01/27 08:40:11;;;;;;;2.80;2.50;;;17.30;64.40;;;;;;10412176;28;20576;-69
2022/01/27 08:45:33;;;;;;;4.50;2.70;;;17.30;64.30;;;;;;10364422;28;20194;-70
2022/01/27 08:51:00;;;;;;;2.97;2.30;;;17.30;64.40;;;;;;10370535;28;20217;-70
2022/01/27 08:56:23;;;;;;;4.23;2.67;;;17.30;64.40;;;;;;10369790;28;20672;-70
2022/01/27 09:01:45;;;;;;;2.40;1.83;;;17.30;64.50;;;;;;10364312;28;20218;-70
2022/01/27 09:07:09;;;;;;;3.47;2.50;;;17.30;64.50;;;;;;10368814;28;20214;-70
2022/01/27 09:12:31;;;;;;;3.33;2.30;;;17.30;64.60;;;;;;10370484;28;20221;-69
2022/01/27 09:17:55;;;;;;;2.97;2.30;;;17.30;64.60;;;;;;10377350;28;20698;-70
2022/01/27 09:23:19;;;;;;;2.80;2.00;;;17.30;64.70;;;;;;10381218;28;20693;-70
2022/01/27 09:28:41;;;;;;;2.17;1.97;;;17.30;64.80;;;;;;10390252;28;20221;-70
2022/01/27 09:34:04;;;;;;;3.87;1.73;;;17.30;64.90;;;;;;10372299;28;20735;-69
2022/01/27 09:39:27;;;;;;;3.00;2.10;;;17.30;65.10;;;;;;10384205;28;20749;-70
2022/01/27 09:44:52;;;;;;;2.30;1.50;;;17.30;65.10;;;;;;10368529;28;20226;-70
2022/01/27 09:50:28;;;;;;;1.80;1.70;;;17.30;65.20;;;;;;10373788;28;20218;-69
2022/01/27 09:55:51;;;;;;;2.63;2.00;;;17.30;65.20;;;;;;10394413;28;20190;-69
2022/01/27 10:01:13;;;;;;;2.67;1.93;;;17.30;65.20;;;;;;10377874;28;20228;-69
2022/01/27 10:06:37;;;;;;;2.47;1.87;;;17.30;65.20;;;;;;10374205;28;20673;-69
2022/01/27 10:12:04;;;;;;;2.37;1.70;;;17.30;65.10;;;;;;10389599;28;20225;-70
2022/01/27 10:17:28;;;;;;;2.43;1.60;;;17.30;65.00;;;;;;10395762;28;20190;-70
2022/01/27 10:23:09;;;;;;;1.60;1.50;;;17.30;65.00;;;;;;10395659;28;20347;-70
2022/01/27 10:28:43;;;;;;;3.00;1.70;;;17.30;65.00;;;;;;10380542;28;20222;-69
2022/01/27 10:34:06;;;;;;;1.80;1.50;;;17.30;65.20;;;;;;10365735;28;20599;-70
2022/01/27 10:39:29;;;;;;;1.77;1.67;;;17.30;65.30;;;;;;10361083;28;20207;-71
2022/01/27 10:44:56;;;;;;;1.83;1.60;;;17.30;65.90;;;;;;10386241;28;20225;-70
2022/01/27 10:50:19;;;;;;;1.63;1.40;;;17.30;65.30;;;;;;10380901;28;20231;-71
2022/01/27 10:55:42;;;;;;;1.60;1.43;;;17.30;65.40;;;;;;10374607;28;20315;-70
2022/01/27 11:01:06;;;;;;;1.60;1.43;;;17.30;65.30;;;;;;10363196;28;20648;-71
2022/01/27 11:06:31;;;;;;;1.80;1.30;;;17.30;65.30;;;;;;10379691;28;20310;-71
2022/01/27 11:11:55;;;;;;;2.87;1.40;;;17.30;65.30;;;;;;10369053;28;20225;-71
2022/01/27 11:17:20;;;;;;;1.47;1.07;;;17.30;65.30;;;;;;10377914;28;20210;-71
2022/01/27 11:22:57;;;;;;;2.00;1.40;;;17.30;65.30;;;;;;10376149;28;20858;-71
2022/01/27 11:28:21;;;;;;;2.20;1.40;;;17.30;65.30;;;;;;10372309;28;20716;-71
2022/01/27 11:33:58;;;;;;;1.33;1.23;;;17.30;65.30;;;;;;10375559;28;20222;-71
2022/01/27 11:39:20;;;;;;;0.97;0.93;;;17.30;65.30;;;;;;10393739;28;20190;-70
2022/01/27 11:44:45;;;;;;;1.40;1.20;;;17.30;65.30;;;;;;10389629;28;20222;-71
2022/01/27 11:50:22;;;;;;;1.17;1.07;;;17.30;65.30;;;;;;10377000;28;20689;-70
2022/01/27 11:55:47;;;;;;;1.30;1.20;;;17.40;65.30;;;;;;10379597;28;20283;-71
2022/01/27 12:01:14;;;;;;;1.40;1.30;;;17.30;65.30;;;;;;10367815;28;20209;-71
2022/01/27 12:06:39;;;;;;;1.73;1.10;;;17.40;65.40;;;;;;10381986;28;20225;-70
2022/01/27 12:12:06;;;;;;;1.50;1.23;;;17.30;65.30;;;;;;10371357;28;20218;-71
2022/01/27 12:17:28;;;;;;;0.97;0.93;;;17.40;65.40;;;;;;10392984;28;20292;-70
2022/01/27 12:23:04;;;;;;;2.10;1.23;;;17.30;65.30;;;;;;10388954;28;20689;-71
2022/01/27 12:28:36;;;;;;;1.83;1.20;;;17.40;65.20;;;;;;10366979;28;20273;-70
2022/01/27 12:33:58;;;;;;;1.30;1.10;;;17.40;65.30;;;;;;10361200;28;20396;-71
2022/01/27 12:39:23;;;;;;;1.57;1.20;;;17.30;65.30;;;;;;10367130;28;20194;-71
2022/01/27 12:44:54;;;;;;;1.13;1.03;;;17.40;65.40;;;;;;10359130;28;20226;-71
2022/01/27 12:50:20;;;;;;;0.90;0.90;;;17.40;65.30;;;;;;10360429;28;20234;-70
2022/01/27 12:55:45;;;;;;;1.10;1.00;;;17.30;65.30;;;;;;10364845;28;20209;-68
2022/01/27 13:01:11;;;;;;;1.53;1.27;;;17.30;65.90;;;;;;10361226;28;20874;-68
2022/01/27 13:06:33;;;;;;;1.70;1.00;;;17.30;65.30;;;;;;10352791;28;20199;-68
2022/01/27 13:11:59;;;;;;;1.10;1.00;;;17.30;65.30;;;;;;10359392;28;20215;-69
2022/01/27 13:17:32;;;;;;;1.10;1.00;;;17.30;65.40;;;;;;10365003;28;20214;-69
2022/01/27 13:22:59;;;;;;;1.00;0.87;;;17.30;65.50;;;;;;10360016;28;20740;-69
2022/01/27 13:28:25;;;;;;;2.13;0.90;;;17.30;65.60;;;;;;10356619;28;20304;-69
2022/01/27 13:33:48;;;;;;;1.27;0.90;;;17.30;65.60;;;;;;10352873;28;20238;-69
2022/01/27 13:39:35;;;;;;;1.90;1.00;;;17.30;65.70;;;;;;10363218;28;20195;-68
2022/01/27 13:45:01;;;;;;;1.40;0.90;;;17.40;65.80;;;;;;10346660;28;20245;-68
2022/01/27 13:50:24;;;;;;;1.53;1.00;;;17.40;65.90;;;;;;10356932;28;20230;-69
2022/01/27 13:55:56;;;;;;;2.20;1.07;;;17.40;65.90;;;;;;10360255;28;20202;-68
2022/01/27 14:01:21;;;;;;;2.47;1.00;;;17.40;65.60;;;;;;10357584;28;20226;-68
2022/01/27 14:06:52;;;;;;;1.17;1.00;;;17.50;65.70;;;;;;10363392;28;20198;-68
2022/01/27 14:12:19;;;;;;;3.17;1.07;;;17.50;65.50;;;;;;10367662;28;20221;-68
2022/01/27 14:17:43;;;;;;;1.40;0.93;;;17.50;65.50;;;;;;10360717;28;20194;-67
2022/01/27 14:23:14;;;;;;;1.87;1.10;;;17.50;65.40;;;;;;10366638;28;20223;-68
2022/01/27 14:28:38;;;;;;;1.50;0.90;;;17.60;65.40;;;;;;10372814;28;20211;-68
2022/01/27 14:34:02;;;;;;;1.63;0.80;;;17.60;65.30;;;;;;10397658;22;20204;-66
2022/01/27 14:39:24;;;;;;;2.90;1.30;;;17.60;65.30;;;;;;10430052;28;20231;-62
2022/01/27 14:44:46;;;;;;;2.50;1.10;;;17.60;65.40;;;;;;10432898;28;20204;-63
2022/01/27 14:50:11;;;;;;;1.43;0.90;;;17.60;65.60;;;;;;10436927;28;20233;-62
2022/01/27 14:55:33;;;;;;;1.73;1.00;;;17.60;65.70;;;;;;10424376;28;20194;-63
2022/01/27 15:00:55;;;;;;;3.97;1.10;;;17.50;65.60;;;;;;10439663;28;20221;-63
2022/01/27 15:06:20;;;;;;;2.90;1.30;;;17.60;65.70;;;;;;10407083;28;20194;-64
2022/01/27 15:11:42;;;;;;;3.50;1.23;;;17.50;65.60;;;;;;10430061;28;20751;-64
2022/01/27 15:22:45;;;;;;;2.53;1.60;;;17.50;65.70;;;;;;10454891;28;20205;-64
2022/01/27 15:28:08;;;;;;;3.70;1.33;;;17.50;65.50;;;;;;10422324;28;20217;-64
2022/01/27 15:33:31;;;;;;;3.57;1.40;;;17.60;65.40;;;;;;10424876;28;20224;-63
2022/01/27 15:38:55;;;;;;;2.73;1.20;;;17.60;65.40;;;;;;10442003;28;20224;-62
2022/01/27 15:44:18;;;;;;;1.30;1.00;;;17.60;65.30;;;;;;10427146;28;20194;-63
2022/01/27 15:49:40;;;;;;;4.20;1.20;;;17.60;65.40;;;;;;10439863;28;20231;-63
2022/01/27 15:55:06;;;;;;;3.57;1.00;;;17.50;65.40;;;;;;10422999;28;20190;-63
2022/01/27 16:00:30;;;;;;;3.60;1.40;;;17.50;65.50;;;;;;10451503;28;20726;-63
2022/01/27 16:05:53;;;;;;;3.50;1.30;;;17.50;65.60;;;;;;10436181;28;20662;-63
2022/01/27 16:11:16;;;;;;;2.50;1.30;;;17.50;65.60;;;;;;10432403;28;20233;-63
2022/01/27 16:16:38;;;;;;;4.20;1.40;;;17.50;65.60;;;;;;10411937;28;20201;-63
2022/01/27 16:22:01;;;;;;;1.40;0.90;;;17.60;65.70;;;;;;10410918;28;20594;-64
2022/01/27 16:27:25;;;;;;;4.33;1.30;;;17.60;65.70;;;;;;10422554;28;20682;-63
2022/01/27 16:32:47;;;;;;;4.00;1.27;;;17.60;65.50;;;;;;10427169;28;20223;-64
2022/01/27 16:38:10;;;;;;;4.43;1.43;;;17.60;65.50;;;;;;10409403;28;20551;-63
2022/01/27 16:43:34;;;;;;;3.17;1.40;;;17.60;65.60;;;;;;10449023;28;20205;-65
2022/01/27 16:48:56;;;;;;;2.40;1.00;;;17.60;65.70;;;;;;10450391;28;20217;-65
2022/01/27 16:54:18;;;;;;;6.10;1.10;;;17.60;65.70;;;;;;10434873;28;20201;-64
2022/01/27 16:59:43;;;;;;;3.57;1.30;;;17.60;65.90;;;;;;10415211;28;20594;-64
2022/01/27 17:05:06;;;;;;;3.17;1.23;;;17.60;66.00;;;;;;10412428;28;20228;-64
2022/01/27 17:10:28;;;;;;;4.03;1.20;;;17.60;65.90;;;;;;10438081;28;20221;-63
2022/01/27 17:15:52;;;;;;;2.93;1.20;;;17.60;65.90;;;;;;10418607;28;20221;-64
2022/01/27 17:21:14;;;;;;;3.80;1.33;;;17.60;65.90;;;;;;10441588;28;20296;-62
2022/01/27 17:26:36;;;;;;;3.13;1.10;;;17.60;65.80;;;;;;10430576;28;20201;-62
2022/01/27 17:32:00;;;;;;;2.70;1.40;;;17.50;65.70;;;;;;10441696;28;20224;-61
2022/01/27 17:37:24;;;;;;;1.83;1.07;;;17.60;65.80;;;;;;10443985;28;20212;-63
2022/01/27 17:42:53;;;;;;;3.13;1.40;;;17.60;65.70;;;;;;10410532;28;20221;-63
2022/01/27 17:48:17;;;;;;;2.23;1.23;;;17.60;65.60;;;;;;10414322;28;20205;-62
2022/01/27 17:53:39;;;;;;;2.53;0.97;;;17.60;65.50;;;;;;10439928;28;20189;-63
2022/01/27 17:59:02;;;;;;;1.40;0.90;;;17.60;65.50;;;;;;10419976;28;20222;-63
2022/01/27 18:04:26;;;;;;;2.00;0.80;;;17.60;65.50;;;;;;10428840;28;20291;-64
2022/01/27 18:09:49;;;;;;;2.27;1.00;;;17.60;65.40;;;;;;10426589;28;20217;-63
2022/01/27 18:15:11;;;;;;;2.10;1.00;;;17.60;65.40;;;;;;10449070;28;20199;-63
2022/01/27 18:20:35;;;;;;;4.00;1.30;;;17.60;65.40;;;;;;10434228;28;20213;-63
2022/01/27 18:25:57;;;;;;;2.50;1.53;;;17.50;65.30;;;;;;10441408;28;20574;-64
2022/01/27 18:31:20;;;;;;;2.47;0.80;;;17.50;65.30;;;;;;10426845;28;20600;-64
2022/01/27 18:36:44;;;;;;;2.20;0.90;;;17.60;65.30;;;;;;10421702;28;20233;-64
2022/01/27 18:42:06;;;;;;;2.30;1.20;;;17.60;65.20;;;;;;10456509;28;20212;-63
2022/01/27 18:47:29;;;;;;;2.47;1.00;;;17.60;65.20;;;;;;10422594;28;20275;-63
2022/01/27 18:52:52;;;;;;;3.40;1.00;;;17.50;65.10;;;;;;10413867;28;20229;-62
2022/01/27 18:58:14;;;;;;;3.10;1.20;;;17.60;65.20;;;;;;10430927;28;20208;-63
2022/01/27 19:03:37;;;;;;;3.23;1.10;;;17.60;65.10;;;;;;10437792;28;20201;-64
2022/01/27 19:09:00;;;;;;;1.93;1.00;;;17.60;65.10;;;;;;10436862;28;20220;-64
2022/01/27 19:14:23;;;;;;;2.33;1.17;;;17.60;65.10;;;;;;10428037;28;20197;-63
2022/01/27 19:19:45;;;;;;;3.00;1.30;;;17.60;65.00;;;;;;10428015;28;20213;-64
2022/01/27 19:25:10;;;;;;;2.37;1.13;;;17.60;65.00;;;;;;10428923;28;20197;-63
2022/01/27 19:30:33;;;;;;;3.60;1.40;;;17.60;65.00;;;;;;10428973;28;20227;-63
2022/01/27 19:35:56;;;;;;;4.10;1.40;;;17.60;65.00;;;;;;10427091;28;20280;-63
2022/01/27 19:41:19;;;;;;;3.53;1.43;;;17.50;65.00;;;;;;10428061;28;20209;-63
2022/01/27 19:46:42;;;;;;;2.93;1.10;;;17.60;65.00;;;;;;10429021;28;20197;-63
2022/01/27 19:52:06;;;;;;;2.83;0.90;;;17.60;65.00;;;;;;10433084;28;20225;-63
2022/01/27 19:57:31;;;;;;;3.17;1.20;;;17.50;64.90;;;;;;10435801;28;20258;-63
2022/01/27 20:02:54;;;;;;;1.40;0.87;;;17.50;64.90;;;;;;10434144;28;20216;-63
2022/01/27 20:08:16;;;;;;;3.60;1.17;;;17.50;64.90;;;;;;10435795;28;20271;-63
2022/01/27 20:13:42;;;;;;;3.47;1.20;;;17.50;64.80;;;;;;10429358;28;20186;-63
2022/01/27 20:19:04;;;;;;;2.47;1.17;;;17.50;64.80;;;;;;10430565;28;20204;-63
2022/01/27 20:24:27;;;;;;;1.60;0.80;;;17.50;64.80;;;;;;10433886;28;20198;-63
2022/01/27 20:29:51;;;;;;;2.10;0.90;;;17.50;64.80;;;;;;10429752;28;20218;-64
2022/01/27 20:35:15;;;;;;;2.77;1.07;;;17.60;64.90;;;;;;10455835;23;20231;-68
2022/01/27 20:40:38;;;;;;;2.43;1.13;;;17.50;64.80;;;;;;10486119;28;20199;-68
2022/01/27 20:46:04;;;;;;;1.47;0.80;;;17.50;64.70;;;;;;10474855;28;20813;-69
2022/01/27 20:51:26;;;;;;;5.60;1.30;;;17.50;64.70;;;;;;10471155;28;20302;-68
2022/01/27 20:56:49;;;;;;;3.40;1.10;;;17.50;64.80;;;;;;10470848;28;20221;-71
2022/01/27 21:02:12;;;;;;;2.90;0.90;;;17.50;64.70;;;;;;10474598;28;20576;-69
2022/01/27 21:07:34;;;;;;;2.57;1.00;;;17.50;64.70;;;;;;10494334;28;20216;-68
2022/01/27 21:12:56;;;;;;;4.33;1.40;;;17.50;64.70;;;;;;10474075;28;20224;-69
2022/01/27 21:18:20;;;;;;;2.80;1.00;;;17.60;64.70;;;;;;10469586;28;20239;-68
2022/01/27 21:23:42;;;;;;;2.20;0.80;;;17.50;64.60;;;;;;10469561;28;20193;-70
2022/01/27 21:29:08;;;;;;;2.63;1.10;;;17.50;64.60;;;;;;10467911;28;20654;-68
2022/01/27 21:34:40;;;;;;;1.70;1.00;;;17.50;64.70;;;;;;10452995;28;20274;-68
2022/01/27 21:40:03;;;;;;;2.10;0.90;;;17.50;64.60;;;;;;10468995;28;20229;-68
2022/01/27 21:45:28;;;;;;;3.63;1.20;;;17.50;64.60;;;;;;10451597;28;20711;-71
2022/01/27 21:50:51;;;;;;;2.83;0.90;;;17.50;64.60;;;;;;10453667;28;20208;-69
2022/01/27 21:56:14;;;;;;;2.37;1.13;;;17.50;64.60;;;;;;10487585;28;20231;-68
2022/01/27 22:01:36;;;;;;;3.03;1.17;;;17.50;64.60;;;;;;10491501;28;20192;-68
2022/01/27 22:06:59;;;;;;;3.10;1.10;;;17.50;64.60;;;;;;10492882;28;20212;-68
2022/01/27 22:12:22;;;;;;;2.47;1.00;;;17.50;64.60;;;;;;10474586;28;20223;-68
2022/01/27 22:17:44;;;;;;;2.47;1.10;;;17.50;64.60;;;;;;10470647;28;20216;-68
2022/01/27 22:23:08;;;;;;;2.23;0.90;;;17.50;64.50;;;;;;10482000;28;20199;-68
2022/01/27 22:28:30;;;;;;;5.60;1.30;;;17.50;64.50;;;;;;10478122;28;20217;-70
2022/01/27 22:33:52;;;;;;;3.90;1.50;;;17.50;64.50;;;;;;10486607;28;20221;-68
2022/01/27 22:39:15;;;;;;;2.70;1.20;;;17.50;64.50;;;;;;10490945;28;20215;-68
2022/01/27 22:44:37;;;;;;;1.93;0.90;;;17.40;64.40;;;;;;10490701;28;20591;-68
2022/01/27 22:50:01;;;;;;;2.23;0.90;;;17.50;64.50;;;;;;10491735;28;20204;-68
2022/01/27 22:55:25;;;;;;;1.53;0.87;;;17.40;64.40;;;;;;10490051;28;20258;-69
2022/01/27 23:00:48;;;;;;;2.73;1.17;;;17.40;64.40;;;;;;10473235;28;20934;-68
2022/01/27 23:06:10;;;;;;;2.20;0.97;;;17.40;64.40;;;;;;10492464;28;20224;-68
2022/01/27 23:11:35;;;;;;;3.37;1.03;;;17.40;64.40;;;;;;10496547;28;20691;-69
2022/01/27 23:17:04;;;;;;;4.20;1.10;;;17.40;64.30;;;;;;10488167;28;20714;-69
2022/01/27 23:22:37;;;;;;;1.63;0.77;;;17.50;64.40;;;;;;10498523;28;20191;-68
2022/01/27 23:28:07;;;;;;;3.00;1.10;;;17.40;64.30;;;;;;10497119;28;20294;-69
2022/01/27 23:33:29;;;;;;;1.57;0.77;;;17.40;64.30;;;;;;10498614;28;20287;-68
2022/01/27 23:38:55;;;;;;;2.00;0.87;;;17.40;64.20;;;;;;10498639;28;20220;-68
2022/01/27 23:50:01;;;;;;;2.57;1.00;;;17.40;64.30;;;;;;10493704;28;20575;-69
2022/01/27 23:55:29;;;;;;;3.37;1.30;;;17.40;64.20;;;;;;10506887;28;20279;-70
